Nearby METAR Reports

 

PAEN - Kenai, Alaska, USA
Distance from station: ESE 2mi, 4km
Updated: Sat, 11-Jul-2020 6:53am AKDT
Partly cloudy
Partly cloudy
 Wind from calm
Wind: Calm
Temperature: 52°F , 11°C
Dew Point: 48°F , 9°C
Humidity: 88%
Barometer: 29.75 inHg , 1007.5 hPa
Clouds: Partly cloudy
Visibility: 10 miles , 16 km
Cloud details: Partly cloudy 7000 ft
2020/07/11 14:53 PAEN 111453Z 00000KT 10SM SCT070 11/09 A2975 RMK AO2 SLP075 T01110094 56001
PASX - Soldotna, Alaska, USA
Distance from station: SE 12mi, 19km
Updated: Sat, 11-Jul-2020 6:56am AKDT
Mostly cloudy
Mostly cloudy
 Wind from ENE
Wind: ENE 3 mph , 6 km/h
Temperature: 54°F , 12°C
Dew Point: 50°F , 10°C
Humidity: 88%
Barometer: 29.77 inHg , 1008.1 hPa
Clouds: Mostly cloudy
Visibility: 10 miles , 16 km
Cloud details: Mostly cloudy 7000 ft
2020/07/11 14:56 PASX 111456Z AUTO 06003KT 10SM BKN070 12/10 A2977 RMK AO2 SLP090 T01220100 55002
 
PANC - Anchorage Intl, Alaska, USA
Distance from station: NE 59mi, 96km
Updated: Sat, 11-Jul-2020 6:53am AKDT
Overcast
Overcast
 Wind from calm
Wind: Calm
Temperature: 57°F , 14°C
Dew Point: 54°F , 12°C
Humidity: 88%
Barometer: 29.75 inHg , 1007.5 hPa
Clouds: Overcast
Visibility: 10 miles , 16 km
Cloud details: Partly cloudy 8000 ft
Overcast 9500 ft
2020/07/11 14:53 PANC 111453Z 00000KT 10SM SCT080 OVC095 14/12 A2975 RMK AO2 SLP074 T01390117 55001
PALH - Anchorage/Lake H, Alaska, USA
Distance from station: NE 61mi, 99km
Updated: Sat, 11-Jul-2020 6:53am AKDT
Overcast
Overcast
 Wind from N
Wind: N 5 mph , 7 km/h
Temperature: 57°F , 14°C
Dew Point: 54°F , 12°C
Humidity: 88%
Barometer: 29.76 inHg , 1007.8 hPa
Clouds: Overcast
Visibility: 10 miles , 16 km
Cloud details: Partly cloudy 4400 ft
Mostly cloudy 8000 ft
Overcast 10000 ft
2020/07/11 14:53 PALH 111453Z 01004KT 10SM SCT044 BKN080 OVC100 14/12 A2976 RMK AO2 SLP077 T01390122 55001
 
PAHO - Homer, Alaska, USA
Distance from station: S 66mi, 106km
Updated: Sat, 11-Jul-2020 6:53am AKDT
Clear
Clear
 Wind from calm
Wind: Calm
Temperature: 55°F , 13°C
Dew Point: 52°F , 11°C
Humidity: 88%
Barometer: 29.75 inHg , 1007.5 hPa
Clouds: Clear
Visibility: 10 miles , 16 km
2020/07/11 14:53 PAHO 111453Z 00000KT 10SM CLR 13/11 A2975 RMK AO2 SLP074 T01330111 56001
PAMR - Anchorage/Merril, Alaska, USA
Distance from station: NE 66mi, 106km
Updated: Sat, 11-Jul-2020 6:53am AKDT
Mostly cloudy
Mostly cloudy
 Wind from N
Wind: N 5 mph , 7 km/h
Temperature: 57°F , 14°C
Dew Point: 50°F , 10°C
Humidity: 77%
Barometer: 29.74 inHg , 1007.1 hPa
Clouds: Mostly cloudy
Visibility: 10 miles , 16 km
Cloud details: Partly cloudy 5000 ft
Mostly cloudy 8000 ft
Mostly cloudy 20000 ft
2020/07/11 14:53 PAMR 111453Z 01004KT 10SM SCT050 BKN080 BKN200 14/10 A2974 RMK AO2 SLP071 T01440100 56003
 
PAED - Elmendorf Afb, Alaska, USA
Distance from station: NE 69mi, 110km
Updated: Sat, 11-Jul-2020 6:56am AKDT
Mostly cloudy
Mostly cloudy
 Wind from NE
Wind: NE 5 mph , 7 km/h
Temperature: 57°F , 14°C
Dew Point: 52°F , 11°C
Humidity: 82%
Barometer: 29.74 inHg , 1007.1 hPa
Clouds: Mostly cloudy
Visibility: 10 miles , 16 km
Cloud details: Few Clouds 4500 ft
Partly cloudy 6000 ft
Mostly cloudy 7500 ft
2020/07/11 14:56 PAED 111456Z 05004KT 10SM FEW045 SCT060 BKN075 14/11 A2974 RMK AO2A DZB30E41 SLP066 P0000 60000 T01380111 55003 $
PAWD - Seward, Alaska, USA
Distance from station: ESE 71mi, 115km
Updated: Sat, 11-Jul-2020 7:01am AKDT
Light rain, Mist, Overcast
Light rain, Mist, Overcast
 Wind from calm
Wind: Calm
Temperature: 54°F , 12°C
Dew Point: 54°F , 12°C
Humidity: 100%
Barometer: 29.79 inHg , 1008.8 hPa
Summary: Light rain, Mist
Clouds: Overcast
Visibility: 3 miles , 5 km
Cloud details: Mostly cloudy 1500 ft
Overcast 2700 ft
2020/07/11 15:01 PAWD 111501Z AUTO 00000KT 3SM -RA BR BKN015 OVC027 12/12 A2979 RMK AO2 P0001 T01220117 TSNO
 
PASC - Deadhorse, Alaska, USA
Distance from station: ENE 670mi, 1078km
Updated: Sat, 11-Jul-2020 7:08am AKDT
Mist, Overcast
Mist, Overcast
 Wind from calm
Wind: Calm
Temperature: 34°F , 1°C
Dew Point: 30°F , -1°C
Humidity: 87%
Barometer: 29.99 inHg , 1015.6 hPa
Summary: Mist
Clouds: Overcast
Visibility: 1 mile , 2 km
Cloud details: Overcast 300 ft
2020/07/11 15:08 PASC 111508Z 00000KT 1SM R06/P6000FT BR OVC003 01/M01 A2999 RMK AO2 T00061006
PAAD - Point Thomson, Alaska, USA
Distance from station: ENE 680mi, 1094km
Updated: Sat, 11-Jul-2020 7:15am AKDT
Mist, Overcast
Mist, Overcast
 Wind from calm
Wind: Calm
Temperature: 32°F , 0°C
Dew Point: 32°F , 0°C
Humidity: 100%
Barometer: 29.99 inHg , 1015.6 hPa
Summary: Mist
Clouds: Overcast
Visibility: 1 1/4 miles , 2 km
Cloud details: Overcast 400 ft
2020/07/11 15:15 PAAD 111515Z AUTO 00000KT 1 1/4SM BR OVC004 00/00 A2999 RMK AO2 VIS 1/2V3 T00040003


kenaipeople.com website

Dans Automotive

Lower Peninsula Power Sports

Freddies RoadHouse

Alaska Weather Net